Time;durP1;ratioP1;P1;durP2;ratioP2;P2;SDS_P1;SDS_P2;PMS_P1;PMS_P2;Temp;Humidity;BMP_temperature;BMP_pressure;BME280_temperature;BME280_humidity;BME280_pressure;Samples;Min_cycle;Max_cycle;Signal;HPM_P1;HPM_P2
2022/04/09 00:01:21;;;;;;;9.93;5.63;;;5.30;99.90;;;;;;5074776;28;20024;-85
2022/04/09 00:03:47;;;;;;;11.20;4.35;;;5.40;99.90;;;;;;5074851;28;20021;-86
2022/04/09 00:06:13;;;;;;;13.25;4.82;;;5.30;99.90;;;;;;5075238;28;20035;-85
2022/04/09 00:08:38;;;;;;;13.05;4.13;;;5.30;99.90;;;;;;5075014;28;20027;-86
2022/04/09 00:11:04;;;;;;;8.95;4.50;;;5.30;99.90;;;;;;5075077;28;20020;-85
2022/04/09 00:13:29;;;;;;;10.95;4.60;;;5.30;99.90;;;;;;5068689;28;20048;-85
2022/04/09 00:15:59;;;;;;;18.30;5.10;;;5.30;99.90;;;;;;5056521;28;20032;-85
2022/04/09 00:18:25;;;;;;;10.52;4.30;;;5.30;99.90;;;;;;5057065;28;20024;-86
2022/04/09 00:21:01;;;;;;;12.15;4.60;;;5.30;99.90;;;;;;5074901;28;20017;-85
2022/04/09 00:23:27;;;;;;;13.43;4.28;;;5.30;99.90;;;;;;5056981;28;20021;-86
2022/04/09 00:25:52;;;;;;;12.13;4.22;;;5.30;99.90;;;;;;5056712;28;20037;-86
2022/04/09 00:28:34;;;;;;;11.80;3.80;;;5.30;99.90;;;;;;5056800;28;20028;-86
2022/04/09 00:31:00;;;;;;;11.95;3.85;;;5.20;99.90;;;;;;5065415;28;20192;-86
2022/04/09 00:33:28;;;;;;;18.20;4.15;;;5.30;99.90;;;;;;5036848;28;20136;-85
2022/04/09 00:36:01;;;;;;;19.75;3.67;;;5.30;99.90;;;;;;5059050;28;20032;-86
2022/04/09 00:38:29;;;;;;;25.23;3.08;;;5.30;99.90;;;;;;5056638;28;20468;-85
2022/04/09 00:41:01;;;;;;;12.07;3.95;;;5.30;99.90;;;;;;5074556;28;20048;-85
2022/04/09 00:43:27;;;;;;;16.88;3.63;;;5.30;99.90;;;;;;5056508;28;20116;-86
2022/04/09 00:46:35;;;;;;;17.17;3.22;;;5.30;99.90;;;;;;5056026;28;20529;-85
2022/04/09 00:49:01;;;;;;;17.73;3.67;;;5.40;99.90;;;;;;5074333;28;20016;-85
2022/04/09 00:51:26;;;;;;;16.45;3.28;;;5.30;99.90;;;;;;5074198;28;20483;-86
2022/04/09 00:54:05;;;;;;;16.65;3.13;;;5.30;99.90;;;;;;5074173;28;20158;-85
2022/04/09 00:56:32;;;;;;;13.45;3.45;;;5.30;99.90;;;;;;5073740;28;20036;-86
2022/04/09 00:59:06;;;;;;;13.57;3.28;;;5.30;99.90;;;;;;5056224;28;20384;-87
2022/04/09 01:01:34;;;;;;;19.58;4.05;;;5.30;99.90;;;;;;5073435;28;20384;-85
2022/04/09 01:04:15;;;;;;;21.42;3.75;;;5.30;99.90;;;;;;5055985;28;20031;-86
2022/04/09 01:06:40;;;;;;;14.57;3.55;;;5.30;99.90;;;;;;5055778;28;20028;-86
2022/04/09 01:09:11;;;;;;;21.13;3.53;;;5.20;99.90;;;;;;5055976;28;20024;-86
2022/04/09 01:11:39;;;;;;;19.38;3.33;;;5.20;99.90;;;;;;5055845;28;20385;-85
2022/04/09 01:14:05;;;;;;;21.55;2.55;;;5.20;99.90;;;;;;5052280;28;20076;-85
2022/04/09 01:16:43;;;;;;;22.58;3.38;;;5.20;99.90;;;;;;5053408;28;20048;-85
2022/04/09 01:19:09;;;;;;;14.73;3.20;;;5.20;99.90;;;;;;5052442;28;20032;-85
2022/04/09 01:21:39;;;;;;;21.45;3.33;;;5.20;99.90;;;;;;5053535;28;20401;-85
2022/04/09 01:24:05;;;;;;;15.02;3.38;;;5.20;99.90;;;;;;5053809;28;20422;-85
2022/04/09 01:26:44;;;;;;;21.55;3.60;;;5.20;99.90;;;;;;5053624;28;20160;-85
2022/04/09 01:29:09;;;;;;;19.55;2.97;;;5.20;99.90;;;;;;5052377;28;20032;-85
2022/04/09 01:31:36;;;;;;;20.58;2.97;;;5.20;99.90;;;;;;5053048;28;20021;-85
2022/04/09 01:34:01;;;;;;;15.85;3.42;;;5.20;99.90;;;;;;5053412;28;20104;-85
2022/04/09 01:36:30;;;;;;;18.92;2.90;;;5.20;99.90;;;;;;5053225;28;20448;-85
2022/04/09 01:38:56;;;;;;;15.93;2.90;;;5.20;99.90;;;;;;5052931;28;20028;-85
2022/04/09 01:41:21;;;;;;;14.95;3.20;;;5.10;99.90;;;;;;5053312;28;20381;-85
2022/04/09 01:44:04;;;;;;;14.45;3.20;;;5.10;99.90;;;;;;5052955;28;20029;-85
2022/04/09 01:46:29;;;;;;;23.33;3.40;;;5.10;99.90;;;;;;5051565;28;20025;-85
2022/04/09 01:49:13;;;;;;;16.77;2.92;;;5.10;99.90;;;;;;5053159;28;20473;-86
2022/04/09 01:51:38;;;;;;;11.52;2.97;;;5.10;99.90;;;;;;5053127;28;20546;-86
2022/04/09 01:54:04;;;;;;;8.77;2.47;;;5.10;99.90;;;;;;5052952;28;20025;-87
2022/04/09 01:56:41;;;;;;;21.05;3.08;;;5.20;99.90;;;;;;5053194;28;20043;-85
2022/04/09 01:59:06;;;;;;;11.43;3.05;;;5.10;99.90;;;;;;5052173;28;20021;-86
2022/04/09 02:01:33;;;;;;;17.83;3.47;;;5.10;99.90;;;;;;5051287;28;20036;-85
2022/04/09 02:03:59;;;;;;;18.10;3.25;;;5.10;99.90;;;;;;5052850;28;20017;-85
2022/04/09 02:06:34;;;;;;;22.10;3.47;;;5.10;99.90;;;;;;5052894;28;20021;-87
2022/04/09 02:09:00;;;;;;;10.70;2.80;;;5.10;99.90;;;;;;5052897;28;20024;-86
2022/04/09 02:11:26;;;;;;;19.30;3.65;;;5.10;99.90;;;;;;5051609;28;20033;-85
2022/04/09 02:13:52;;;;;;;15.70;2.75;;;5.10;99.90;;;;;;5051454;28;20056;-86
2022/04/09 02:16:18;;;;;;;18.35;3.38;;;5.10;99.90;;;;;;5054634;28;20059;-85
2022/04/09 02:18:56;;;;;;;19.55;5.78;;;5.00;99.90;;;;;;5072622;28;20031;-85
2022/04/09 02:21:22;;;;;;;15.60;4.40;;;5.10;99.90;;;;;;5054762;28;20025;-85
2022/04/09 02:24:00;;;;;;;15.15;2.92;;;5.10;99.90;;;;;;5072830;28;20031;-86
2022/04/09 02:26:25;;;;;;;18.17;3.58;;;5.00;99.90;;;;;;5072703;28;20020;-85
2022/04/09 02:29:10;;;;;;;12.18;3.10;;;5.00;99.90;;;;;;5054757;28;20361;-86
2022/04/09 02:31:36;;;;;;;12.20;3.17;;;5.00;99.90;;;;;;5072479;28;20074;-85
2022/04/09 02:34:13;;;;;;;16.90;3.97;;;5.00;99.90;;;;;;5054191;28;20017;-86
2022/04/09 02:36:39;;;;;;;12.05;3.00;;;5.00;99.90;;;;;;5072341;28;20048;-85
2022/04/09 02:39:04;;;;;;;17.80;3.30;;;4.90;99.90;;;;;;5072516;28;20068;-85
2022/04/09 02:41:36;;;;;;;16.00;2.97;;;4.90;99.90;;;;;;5072899;28;20464;-86
2022/04/09 02:44:02;;;;;;;13.70;2.90;;;5.00;99.90;;;;;;5052464;28;20028;-85
2022/04/09 02:46:34;;;;;;;19.30;4.22;;;4.90;99.90;;;;;;5062843;28;20498;-85
2022/04/09 02:49:00;;;;;;;17.52;3.80;;;4.90;99.90;;;;;;5054484;28;20411;-85
2022/04/09 02:51:41;;;;;;;19.85;2.72;;;4.90;99.90;;;;;;5072505;28;20025;-85
2022/04/09 02:54:15;;;;;;;9.43;2.88;;;4.90;99.90;;;;;;5072457;28;20021;-85
2022/04/09 02:56:42;;;;;;;11.85;3.53;;;4.90;99.90;;;;;;5072333;28;20017;-88
2022/04/09 02:59:18;;;;;;;19.13;3.15;;;4.90;99.90;;;;;;5072218;28;20020;-85
2022/04/09 03:01:46;;;;;;;13.95;3.33;;;5.00;99.90;;;;;;5072092;28;20511;-86
2022/04/09 03:04:14;;;;;;;16.83;3.75;;;5.00;99.90;;;;;;5072157;28;20032;-86
2022/04/09 03:06:45;;;;;;;12.48;3.80;;;5.00;99.90;;;;;;5054354;28;20099;-85
2022/04/09 03:09:10;;;;;;;19.40;3.47;;;4.90;99.90;;;;;;5072152;28;20099;-85
2022/04/09 03:11:54;;;;;;;14.05;2.13;;;4.90;99.90;;;;;;5075595;28;20071;-86
2022/04/09 03:14:24;;;;;;;13.60;3.53;;;4.90;99.90;;;;;;5075807;28;20050;-85
2022/04/09 03:16:49;;;;;;;11.95;3.15;;;4.90;99.90;;;;;;5057816;28;20392;-85
2022/04/09 03:19:15;;;;;;;11.45;2.67;;;4.90;99.90;;;;;;5075813;28;20024;-85
2022/04/09 03:21:41;;;;;;;14.25;2.90;;;4.90;99.90;;;;;;5064844;28;20082;-85
2022/04/09 03:24:07;;;;;;;17.42;2.92;;;4.90;99.90;;;;;;5055946;28;20044;-85
2022/04/09 03:26:33;;;;;;;14.02;3.85;;;4.90;99.90;;;;;;5037963;28;20036;-87
2022/04/09 03:29:00;;;;;;;16.55;2.83;;;5.00;99.90;;;;;;5061660;28;20098;-86
2022/04/09 03:31:26;;;;;;;20.52;3.35;;;4.90;99.90;;;;;;5057437;28;20020;-87
2022/04/09 03:33:58;;;;;;;12.25;2.75;;;4.90;99.90;;;;;;5075473;28;20027;-86
2022/04/09 03:36:23;;;;;;;12.25;2.65;;;4.90;99.90;;;;;;5075583;28;20062;-86
2022/04/09 03:38:49;;;;;;;6.72;2.72;;;4.90;99.90;;;;;;5075781;28;20423;-86
2022/04/09 03:41:25;;;;;;;17.70;2.75;;;5.00;99.90;;;;;;5075642;28;20028;-86
2022/04/09 03:43:51;;;;;;;;;;;4.90;99.90;;;;;;5075857;28;20029;-86
2022/04/09 03:46:16;;;;;;;16.52;2.65;;;4.90;99.90;;;;;;5075386;28;19915;-88
2022/04/09 03:49:11;;;;;;;9.45;2.58;;;4.90;99.90;;;;;;5075389;28;20028;-87
2022/04/09 03:51:37;;;;;;;8.95;1.98;;;4.90;99.90;;;;;;5075510;28;20384;-86
2022/04/09 03:54:02;;;;;;;14.32;3.17;;;4.90;99.90;;;;;;5075437;28;20082;-86
2022/04/09 03:56:40;;;;;;;10.52;2.38;;;4.90;99.90;;;;;;5075368;28;20350;-87
2022/04/09 03:59:05;;;;;;;11.55;2.17;;;4.90;99.90;;;;;;5075277;28;20116;-87
2022/04/09 04:01:54;;;;;;;6.72;2.05;;;4.90;99.90;;;;;;5057486;28;20107;-87
2022/04/09 04:04:21;;;;;;;7.93;1.88;;;4.90;99.90;;;;;;5057251;28;20067;-86
2022/04/09 04:06:48;;;;;;;14.43;3.55;;;4.90;99.90;;;;;;5075242;28;20024;-87
2022/04/09 04:09:24;;;;;;;11.75;3.63;;;5.00;99.90;;;;;;5075050;28;20032;-86
2022/04/09 04:11:50;;;;;;;10.30;2.67;;;4.90;99.90;;;;;;5057201;28;20016;-86
2022/04/09 04:14:15;;;;;;;17.55;4.32;;;4.90;99.90;;;;;;5074836;28;20484;-87
2022/04/09 04:17:14;;;;;;;7.13;3.53;;;4.90;99.90;;;;;;5074971;28;20370;-87
2022/04/09 04:19:40;;;;;;;6.28;2.55;;;4.90;99.90;;;;;;5075118;28;20400;-86
2022/04/09 04:22:07;;;;;;;11.32;2.15;;;4.90;99.90;;;;;;5074025;28;20025;-87
2022/04/09 04:24:37;;;;;;;11.93;2.28;;;4.90;99.90;;;;;;5074917;28;20035;-87
2022/04/09 04:27:26;;;;;;;12.00;2.70;;;4.80;99.90;;;;;;5074880;28;20029;-87
2022/04/09 04:29:51;;;;;;;9.80;2.60;;;4.90;99.90;;;;;;5074681;28;20028;-87
2022/04/09 04:32:27;;;;;;;5.60;1.90;;;4.90;99.90;;;;;;5056657;28;20012;-87
2022/04/09 04:34:52;;;;;;;8.20;2.22;;;4.80;99.90;;;;;;5057009;28;20033;-87
2022/04/09 04:37:18;;;;;;;9.98;2.30;;;4.80;99.90;;;;;;5056692;28;20032;-86
2022/04/09 04:40:10;;;;;;;8.63;2.30;;;4.90;99.90;;;;;;5074581;28;20036;-86
2022/04/09 04:42:36;;;;;;;11.68;2.28;;;4.90;99.90;;;;;;5074460;28;20511;-87
2022/04/09 04:45:03;;;;;;;9.57;2.05;;;4.90;99.90;;;;;;5074407;28;20025;-87
2022/04/09 04:47:50;;;;;;;14.50;2.40;;;4.80;99.90;;;;;;5074629;28;20086;-87
2022/04/09 04:50:17;;;;;;;11.20;2.70;;;4.80;99.90;;;;;;5056138;28;20051;-86
2022/04/09 04:52:43;;;;;;;6.55;2.22;;;4.70;99.90;;;;;;5074330;28;20032;-86
2022/04/09 04:55:37;;;;;;;9.10;2.42;;;4.70;99.90;;;;;;5074258;28;20461;-86
2022/04/09 04:58:03;;;;;;;9.05;2.58;;;4.70;99.90;;;;;;5056415;28;20036;-89
2022/04/09 05:00:30;;;;;;;7.38;2.38;;;4.60;99.90;;;;;;5055846;28;20121;-86
2022/04/09 05:02:58;;;;;;;4.68;2.10;;;4.60;99.90;;;;;;5074139;28;20103;-87
2022/04/09 05:05:23;;;;;;;10.88;2.83;;;4.50;99.90;;;;;;5074014;28;20026;-86
2022/04/09 05:08:00;;;;;;;33.45;2.90;;;4.50;99.90;;;;;;5074128;28;20393;-87
2022/04/09 05:10:27;;;;;;;5.97;1.90;;;4.50;99.90;;;;;;5056315;28;20036;-88
2022/04/09 05:12:54;;;;;;;18.13;2.97;;;4.60;99.90;;;;;;5074099;28;20029;-87
2022/04/09 05:15:19;;;;;;;11.90;2.45;;;4.60;99.90;;;;;;5060362;28;20083;-88
2022/04/09 05:17:45;;;;;;;8.52;2.67;;;4.60;99.90;;;;;;5073976;28;20500;-87
2022/04/09 05:20:33;;;;;;;7.85;2.10;;;4.60;99.90;;;;;;5073936;28;20020;-87
2022/04/09 05:22:58;;;;;;;4.10;1.63;;;4.70;99.90;;;;;;5047799;28;20052;-87
2022/04/09 05:25:37;;;;;;;9.20;2.03;;;4.60;99.90;;;;;;5071442;28;20488;-87
2022/04/09 05:28:08;;;;;;;3.80;1.88;;;4.60;99.90;;;;;;5055664;28;20024;-88
2022/04/09 05:30:34;;;;;;;9.05;1.95;;;4.60;99.90;;;;;;5073033;28;20051;-87
2022/04/09 05:33:01;;;;;;;3.72;1.98;;;4.60;99.90;;;;;;5055260;28;20473;-86
2022/04/09 05:35:27;;;;;;;5.15;1.85;;;4.70;99.90;;;;;;5055130;28;20016;-86
2022/04/09 05:38:05;;;;;;;11.90;1.92;;;4.80;99.90;;;;;;5073285;28;20040;-86
2022/04/09 05:40:48;;;;;;;3.33;1.58;;;4.70;99.90;;;;;;5059555;28;20016;-86
2022/04/09 05:43:14;;;;;;;8.25;2.20;;;4.70;99.90;;;;;;5053385;28;20103;-86
2022/04/09 05:45:41;;;;;;;6.32;1.42;;;4.70;99.90;;;;;;5066821;28;20104;-86
2022/04/09 05:48:06;;;;;;;12.20;1.98;;;4.70;99.90;;;;;;5072809;28;20104;-86
2022/04/09 05:50:36;;;;;;;2.67;1.35;;;4.80;99.90;;;;;;5073309;28;20107;-87
2022/04/09 05:53:02;;;;;;;8.63;1.85;;;4.80;99.90;;;;;;5073067;28;20017;-87
2022/04/09 05:55:28;;;;;;;7.85;2.10;;;4.90;99.90;;;;;;5072817;28;20077;-87
2022/04/09 05:57:54;;;;;;;5.53;1.50;;;4.90;99.90;;;;;;5073027;28;20032;-87
2022/04/09 06:00:22;;;;;;;6.30;1.65;;;4.90;99.90;;;;;;5072588;28;20038;-86
2022/04/09 06:02:47;;;;;;;11.70;1.50;;;5.00;99.90;;;;;;5054755;28;20032;-87
2022/04/09 06:05:13;;;;;;;5.65;1.55;;;5.10;99.90;;;;;;5072996;28;20024;-87
2022/04/09 06:07:44;;;;;;;5.68;1.38;;;5.10;99.90;;;;;;5054782;28;20476;-87
2022/04/09 06:10:11;;;;;;;5.22;1.48;;;5.10;99.90;;;;;;5054923;28;20052;-86
2022/04/09 06:12:38;;;;;;;5.80;1.50;;;5.20;99.90;;;;;;5067113;28;20012;-86
2022/04/09 06:15:04;;;;;;;8.35;1.67;;;5.20;99.90;;;;;;5072617;28;20380;-86
2022/04/09 06:17:42;;;;;;;7.53;1.30;;;5.30;99.90;;;;;;5072418;28;20111;-86
2022/04/09 06:20:08;;;;;;;5.47;1.33;;;5.30;99.90;;;;;;5054748;28;20033;-86
2022/04/09 06:22:41;;;;;;;10.05;1.90;;;5.30;99.90;;;;;;5072638;28;20442;-85
2022/04/09 06:25:07;;;;;;;4.38;1.58;;;5.30;99.90;;;;;;5072422;28;20029;-87
2022/04/09 06:27:39;;;;;;;7.68;1.92;;;5.30;99.90;;;;;;5072645;28;20032;-86
2022/04/09 06:30:06;;;;;;;6.47;1.90;;;5.30;99.90;;;;;;5054165;28;20038;-87
2022/04/09 06:32:49;;;;;;;9.85;2.42;;;5.20;99.90;;;;;;5054469;28;20486;-87
2022/04/09 06:35:14;;;;;;;7.38;1.80;;;5.20;99.90;;;;;;5072595;28;20024;-86
2022/04/09 06:37:44;;;;;;;5.05;1.65;;;5.20;99.90;;;;;;5072729;28;20388;-87
2022/04/09 06:40:10;;;;;;;8.38;1.85;;;5.10;99.90;;;;;;5057445;28;20126;-86
2022/04/09 06:42:39;;;;;;;7.90;2.65;;;5.10;99.90;;;;;;5072499;28;20084;-86
2022/04/09 06:45:05;;;;;;;5.68;2.20;;;5.10;99.90;;;;;;5073419;28;20043;-87
2022/04/09 06:47:31;;;;;;;6.18;2.72;;;5.10;99.90;;;;;;5058583;28;20024;-87
2022/04/09 06:50:00;;;;;;;7.55;1.35;;;5.20;99.90;;;;;;5076378;28;20024;-87
2022/04/09 06:52:26;;;;;;;7.22;2.38;;;5.30;99.90;;;;;;5074959;28;20031;-87
2022/04/09 06:54:55;;;;;;;7.13;1.92;;;5.30;99.90;;;;;;5057095;28;20507;-86
2022/04/09 06:57:21;;;;;;;14.98;2.58;;;5.40;99.90;;;;;;5057226;28;20107;-86
2022/04/09 06:59:46;;;;;;;6.43;2.15;;;5.50;99.90;;;;;;5057631;28;20163;-87
2022/04/09 07:02:20;;;;;;;3.75;1.52;;;5.60;99.90;;;;;;5075920;28;20025;-86
2022/04/09 07:04:46;;;;;;;12.98;2.63;;;5.60;99.90;;;;;;5075597;28;20476;-86
2022/04/09 07:07:19;;;;;;;10.57;2.92;;;5.70;99.90;;;;;;5075946;28;20031;-87
2022/04/09 07:09:45;;;;;;;6.43;1.98;;;5.70;99.90;;;;;;5075755;28;20048;-87
2022/04/09 07:12:31;;;;;;;10.30;2.28;;;5.80;99.90;;;;;;5057881;28;20048;-88
2022/04/09 07:14:56;;;;;;;6.72;2.22;;;5.70;99.90;;;;;;5057363;28;20020;-87
2022/04/09 07:17:22;;;;;;;16.42;2.00;;;5.80;99.90;;;;;;5068725;28;20059;-87
2022/04/09 07:20:07;;;;;;;11.82;1.90;;;5.80;99.90;;;;;;5075651;28;20548;-88
2022/04/09 07:22:35;;;;;;;18.42;2.63;;;5.80;99.90;;;;;;5057721;28;20103;-89
2022/04/09 07:25:18;;;;;;;10.38;1.75;;;5.80;99.90;;;;;;5057582;28;20032;-88
2022/04/09 07:27:45;;;;;;;6.45;1.67;;;5.80;99.90;;;;;;5057650;28;20032;-89
2022/04/09 07:30:27;;;;;;;13.35;2.05;;;5.80;99.90;;;;;;5057705;28;20447;-87
2022/04/09 07:32:56;;;;;;;7.40;2.08;;;5.90;99.90;;;;;;5057188;28;20107;-88
2022/04/09 07:36:08;;;;;;;9.02;1.90;;;5.90;99.90;;;;;;5057760;28;20468;-89
2022/04/09 07:38:34;;;;;;;11.10;2.47;;;5.90;99.90;;;;;;5075229;28;20055;-87
2022/04/09 07:41:02;;;;;;;6.45;1.60;;;5.90;99.90;;;;;;5075197;28;20070;-88
2022/04/09 07:43:27;;;;;;;4.07;1.58;;;6.00;99.90;;;;;;5075567;28;20031;-89
2022/04/09 07:45:53;;;;;;;8.07;1.70;;;6.10;99.90;;;;;;5057408;28;20020;-90
2022/04/09 07:48:20;;;;;;;10.45;2.30;;;6.10;99.90;;;;;;5075922;28;20052;-91
2022/04/09 07:50:45;;;;;;;9.45;1.90;;;6.10;99.90;;;;;;5057684;28;20480;-89
2022/04/09 07:53:11;;;;;;;7.68;2.15;;;6.00;99.90;;;;;;5057446;28;20021;-89
2022/04/09 07:55:47;;;;;;;6.80;2.45;;;5.90;99.90;;;;;;5075083;28;20366;-87
2022/04/09 07:58:14;;;;;;;8.48;2.22;;;5.90;99.90;;;;;;5074507;28;20020;-87
2022/04/09 08:00:40;;;;;;;13.20;2.13;;;6.00;99.90;;;;;;5075025;28;20098;-88
2022/04/09 08:03:12;;;;;;;11.70;2.35;;;6.10;99.90;;;;;;5075290;28;20044;-89
2022/04/09 08:05:38;;;;;;;6.70;1.73;;;6.20;99.90;;;;;;5075215;28;20040;-87
2022/04/09 08:08:09;;;;;;;17.05;2.83;;;6.40;99.90;;;;;;5075099;28;20020;-89
2022/04/09 08:10:37;;;;;;;11.20;2.55;;;6.50;99.90;;;;;;5052755;28;20484;-89
2022/04/09 08:13:02;;;;;;;9.57;1.75;;;6.50;99.90;;;;;;5056840;28;20093;-87
2022/04/09 08:15:28;;;;;;;12.27;2.10;;;6.50;99.90;;;;;;5056633;28;20028;-86
2022/04/09 08:17:56;;;;;;;6.88;1.40;;;6.50;99.90;;;;;;5053022;28;20052;-86
2022/04/09 08:20:27;;;;;;;7.10;2.10;;;6.50;99.90;;;;;;5053562;28;20108;-85
2022/04/09 08:22:53;;;;;;;4.35;1.52;;;6.50;99.90;;;;;;5054569;28;20017;-86
2022/04/09 08:25:23;;;;;;;9.27;1.63;;;6.50;99.90;;;;;;5054728;28;20078;-86
2022/04/09 08:27:52;;;;;;;3.50;1.48;;;6.40;99.90;;;;;;5054674;28;20020;-87
2022/04/09 08:30:23;;;;;;;7.45;1.67;;;6.30;99.90;;;;;;5054252;28;20032;-87
2022/04/09 08:32:50;;;;;;;11.55;2.13;;;6.10;99.90;;;;;;5054399;28;20048;-86
2022/04/09 08:35:18;;;;;;;6.88;1.38;;;6.00;99.90;;;;;;5053426;28;20130;-87
2022/04/09 08:37:50;;;;;;;12.32;1.63;;;6.00;99.90;;;;;;5054707;28;20021;-86
2022/04/09 08:40:24;;;;;;;8.27;1.60;;;6.00;99.90;;;;;;5053440;28;20421;-86
2022/04/09 08:42:50;;;;;;;4.25;1.30;;;6.10;99.90;;;;;;5054615;28;20029;-88
2022/04/09 08:45:17;;;;;;;6.47;1.67;;;6.20;99.90;;;;;;5053015;28;20078;-86
2022/04/09 08:47:43;;;;;;;6.93;1.70;;;6.40;99.90;;;;;;5054409;28;20439;-85
2022/04/09 08:50:43;;;;;;;6.25;1.95;;;6.40;99.90;;;;;;5054230;28;20029;-87
2022/04/09 08:53:09;;;;;;;6.88;2.03;;;6.30;99.90;;;;;;5054295;28;20047;-86
2022/04/09 08:55:45;;;;;;;6.43;1.52;;;6.30;99.90;;;;;;5054324;28;20017;-86
2022/04/09 08:58:11;;;;;;;;;;;6.30;99.90;;;;;;5054569;28;20020;-86
2022/04/09 09:01:03;;;;;;;13.27;1.83;;;6.40;99.90;;;;;;5053768;28;20319;-87
2022/04/09 09:03:29;;;;;;;5.13;1.80;;;6.40;99.90;;;;;;5053867;28;20064;-86
2022/04/09 09:06:30;;;;;;;7.10;1.77;;;6.40;99.90;;;;;;5053972;28;20079;-87
2022/04/09 09:09:00;;;;;;;5.35;1.70;;;6.50;99.90;;;;;;5052253;28;20036;-87
2022/04/09 09:11:29;;;;;;;6.25;2.13;;;6.60;99.90;;;;;;5052887;28;20032;-86
2022/04/09 09:13:57;;;;;;;7.75;1.50;;;6.70;99.90;;;;;;5053759;28;20021;-85
2022/04/09 09:16:31;;;;;;;4.40;1.52;;;6.70;99.90;;;;;;5053159;28;20103;-87
2022/04/09 09:19:03;;;;;;;10.10;1.65;;;6.70;99.90;;;;;;5073715;28;20036;-87
2022/04/09 09:21:29;;;;;;;5.93;1.65;;;6.80;99.90;;;;;;5056100;28;20021;-87
2022/04/09 09:24:06;;;;;;;8.35;1.55;;;6.90;99.90;;;;;;5055672;28;20038;-88
2022/04/09 09:26:35;;;;;;;4.32;1.63;;;7.10;99.90;;;;;;5055838;28;20423;-88
2022/04/09 09:29:00;;;;;;;5.28;1.55;;;7.30;99.90;;;;;;5073550;28;20032;-86
2022/04/09 09:31:43;;;;;;;6.05;1.60;;;7.30;99.90;;;;;;5072972;28;20035;-87
2022/04/09 09:34:13;;;;;;;6.43;1.40;;;7.30;99.90;;;;;;5073051;28;20025;-86
2022/04/09 09:36:43;;;;;;;3.72;1.38;;;7.30;99.90;;;;;;5073533;28;20024;-85
2022/04/09 09:39:11;;;;;;;5.35;1.58;;;7.40;99.90;;;;;;5072886;28;20516;-85
2022/04/09 09:42:02;;;;;;;4.78;1.58;;;7.40;99.90;;;;;;5073367;28;20028;-87
2022/04/09 09:44:34;;;;;;;4.72;1.30;;;7.20;99.90;;;;;;5072752;28;20583;-87
2022/04/09 09:47:12;;;;;;;10.15;1.50;;;7.20;99.90;;;;;;5055234;28;20025;-85
2022/04/09 09:49:53;;;;;;;6.50;1.30;;;7.40;99.90;;;;;;5072653;28;20024;-86
2022/04/09 09:52:34;;;;;;;9.70;1.35;;;7.50;99.90;;;;;;5072554;28;20036;-86
2022/04/09 09:55:10;;;;;;;5.80;1.70;;;7.50;99.90;;;;;;5073083;28;20380;-89
2022/04/09 09:57:38;;;;;;;7.57;1.55;;;7.70;99.90;;;;;;5073075;28;20023;-87
2022/04/09 10:00:10;;;;;;;5.45;1.50;;;7.80;99.90;;;;;;5054558;28;20032;-86
2022/04/09 10:02:38;;;;;;;5.70;1.70;;;7.80;99.90;;;;;;5054787;28;20020;-87
2022/04/09 10:05:06;;;;;;;3.70;1.35;;;7.80;99.90;;;;;;5054865;28;20024;-87
2022/04/09 10:07:34;;;;;;;6.10;1.30;;;8.00;99.90;;;;;;5072822;28;20036;-87
2022/04/09 10:10:07;;;;;;;9.55;1.23;;;8.00;99.90;;;;;;5055094;28;20038;-86
2022/04/09 10:12:42;;;;;;;6.63;1.55;;;8.10;99.90;;;;;;5073139;28;20090;-86
2022/04/09 10:15:09;;;;;;;7.65;1.60;;;8.10;99.90;;;;;;5072549;28;20109;-86
2022/04/09 10:17:35;;;;;;;5.78;1.15;;;8.00;99.90;;;;;;5062078;28;20052;-87
2022/04/09 10:20:02;;;;;;;4.60;1.80;;;7.90;99.90;;;;;;5072244;28;20472;-88
2022/04/09 10:22:33;;;;;;;5.50;1.80;;;7.70;99.90;;;;;;5072564;28;20027;-88
2022/04/09 10:25:07;;;;;;;4.15;1.35;;;7.70;99.90;;;;;;5072896;28;20103;-85
2022/04/09 10:31:43;;;;;;;18.13;5.22;;;7.70;99.90;;;;;;5029392;28;20049;-86
2022/04/09 10:34:16;;;;;;;5.35;1.80;;;8.00;99.90;;;;;;5030590;28;20441;-87
2022/04/09 10:36:47;;;;;;;5.75;1.50;;;8.10;99.90;;;;;;5030547;28;20025;-87
2022/04/09 10:42:53;;;;;;;3.55;1.50;;;7.90;99.90;;;;;;5025295;28;20032;-87
2022/04/09 10:45:19;;;;;;;3.25;1.33;;;7.60;99.90;;;;;;5010583;28;20100;-87
2022/04/09 10:48:16;;;;;;;2.15;1.17;;;7.40;99.90;;;;;;5011045;28;20030;-88
2022/04/09 10:54:20;;;;;;;2.92;1.10;;;6.50;99.90;;;;;;4952564;29;20565;-89
2022/04/09 10:57:06;;;;;;;5.20;1.48;;;6.60;99.90;;;;;;4952518;29;20066;-88
2022/04/09 10:59:33;;;;;;;4.47;1.65;;;6.60;99.90;;;;;;4971202;28;20491;-88
2022/04/09 11:01:59;;;;;;;0.82;0.82;;;6.80;99.90;;;;;;4978461;28;20390;-87
2022/04/09 11:04:47;;;;;;;5.43;1.33;;;7.00;99.90;;;;;;4992460;28;20066;-86
2022/04/09 11:07:23;;;;;;;3.17;1.30;;;7.20;99.90;;;;;;5010481;28;20069;-86
2022/04/09 11:10:42;;;;;;;4.57;1.23;;;7.40;99.90;;;;;;5071409;28;20043;-88
2022/04/09 11:13:12;;;;;;;4.38;1.50;;;7.70;99.90;;;;;;5071837;28;20078;-87
2022/04/09 11:15:57;;;;;;;3.20;1.10;;;8.00;99.90;;;;;;5071690;28;20031;-87
2022/04/09 11:18:30;;;;;;;2.55;1.30;;;8.10;99.90;;;;;;5064871;28;20066;-87
2022/04/09 11:20:56;;;;;;;8.32;2.58;;;8.00;99.90;;;;;;5055808;28;20361;-87
2022/04/09 11:23:25;;;;;;;6.68;2.17;;;7.80;99.90;;;;;;5072203;28;20170;-85
2022/04/09 11:25:50;;;;;;;3.20;1.30;;;7.60;99.90;;;;;;5054537;28;20027;-87
2022/04/09 11:28:21;;;;;;;7.78;2.15;;;7.50;99.90;;;;;;5072208;28;20020;-86
2022/04/09 11:30:54;;;;;;;6.47;1.17;;;7.40;99.90;;;;;;5054667;28;20354;-87
2022/04/09 11:33:57;;;;;;;13.27;2.17;;;7.50;99.90;;;;;;5075931;28;20016;-87
2022/04/09 11:36:23;;;;;;;3.25;1.90;;;7.70;99.90;;;;;;5057944;28;20395;-86
2022/04/09 11:38:48;;;;;;;5.18;1.63;;;8.00;99.90;;;;;;5075957;28;20103;-87
2022/04/09 11:41:20;;;;;;;6.65;1.55;;;8.20;99.90;;;;;;5057981;28;20063;-87
2022/04/09 11:44:00;;;;;;;3.83;1.40;;;8.40;99.90;;;;;;5057536;28;20094;-86
2022/04/09 11:46:31;;;;;;;8.20;1.52;;;8.60;99.90;;;;;;5075600;28;20024;-86
2022/04/09 11:49:00;;;;;;;3.45;1.38;;;8.80;99.90;;;;;;5075725;28;20111;-86
2022/04/09 11:51:26;;;;;;;7.90;1.73;;;8.90;99.90;;;;;;5075436;28;20020;-87
2022/04/09 11:54:16;;;;;;;3.97;1.45;;;9.00;99.90;;;;;;5075522;28;20097;-86
2022/04/09 11:57:17;;;;;;;3.60;1.42;;;9.00;99.90;;;;;;5063044;28;20032;-86
2022/04/09 11:59:49;;;;;;;4.78;1.42;;;9.30;99.90;;;;;;5057293;28;20434;-87
2022/04/09 12:02:35;;;;;;;5.65;1.48;;;9.30;99.90;;;;;;5057371;28;20021;-87
2022/04/09 12:05:01;;;;;;;5.43;1.60;;;9.10;99.90;;;;;;5075288;28;20036;-85
2022/04/09 12:08:07;;;;;;;2.63;1.10;;;9.00;99.90;;;;;;5075153;28;20384;-87
2022/04/09 12:10:33;;;;;;;2.75;1.13;;;8.80;99.90;;;;;;5075220;28;20029;-87
2022/04/09 12:13:25;;;;;;;3.90;1.42;;;8.40;99.90;;;;;;5057251;28;20085;-87
2022/04/09 12:15:51;;;;;;;2.72;1.65;;;8.20;99.90;;;;;;5074858;28;20021;-86
2022/04/09 12:18:31;;;;;;;3.67;1.20;;;7.60;99.90;;;;;;5074183;28;20051;-86
2022/04/09 12:21:31;;;;;;;2.40;1.15;;;6.80;99.90;;;;;;5056959;28;20115;-85
2022/04/09 12:24:05;;;;;;;2.97;0.90;;;6.30;99.90;;;;;;5075128;28;20415;-85
2022/04/09 12:26:54;;;;;;;9.52;3.78;;;6.00;99.90;;;;;;5056908;28;20025;-86
2022/04/09 12:29:22;;;;;;;3.95;1.63;;;5.90;99.90;;;;;;5074772;28;20021;-85
2022/04/09 12:32:16;;;;;;;11.30;2.95;;;5.90;99.90;;;;;;5074893;28;20175;-86
2022/04/09 12:34:52;;;;;;;8.30;3.05;;;5.90;99.90;;;;;;5057310;28;20025;-86
2022/04/09 12:37:25;;;;;;;9.27;1.50;;;5.90;99.90;;;;;;5074895;28;20048;-85
2022/04/09 12:39:52;;;;;;;13.65;4.45;;;5.90;99.90;;;;;;5074938;28;20033;-86
2022/04/09 12:42:40;;;;;;;14.13;4.00;;;6.00;99.90;;;;;;5074080;28;20028;-86
2022/04/09 12:45:13;;;;;;;4.70;1.50;;;6.20;99.90;;;;;;5074449;28;20024;-86
2022/04/09 12:48:11;;;;;;;6.18;2.20;;;6.70;99.90;;;;;;5074629;28;20094;-86
2022/04/09 12:50:37;;;;;;;21.08;6.38;;;7.10;99.90;;;;;;5074475;28;20381;-86
2022/04/09 12:53:30;;;;;;;4.28;1.50;;;7.50;99.90;;;;;;5056601;28;20028;-87
2022/04/09 12:55:56;;;;;;;5.50;1.40;;;7.80;99.90;;;;;;5074482;28;20047;-87
2022/04/09 12:59:02;;;;;;;3.55;1.45;;;7.90;99.90;;;;;;5074508;28;20020;-87
2022/04/09 13:01:28;;;;;;;6.53;1.43;;;8.00;99.90;;;;;;5074319;28;20361;-87
2022/04/09 13:03:55;;;;;;;8.23;1.67;;;7.80;99.90;;;;;;5074257;28;20269;-87
2022/04/09 13:06:21;;;;;;;6.80;1.30;;;7.80;99.90;;;;;;5074260;28;20534;-87
2022/04/09 13:08:59;;;;;;;3.78;1.60;;;7.70;99.90;;;;;;5074054;28;20052;-88
2022/04/09 13:11:25;;;;;;;4.93;1.27;;;7.70;99.90;;;;;;5074044;28;20033;-87
2022/04/09 13:14:20;;;;;;;3.58;1.45;;;7.70;99.90;;;;;;5073977;28;20021;-87
2022/04/09 13:16:46;;;;;;;8.07;1.55;;;7.50;99.90;;;;;;5074015;28;20040;-86
2022/04/09 13:19:11;;;;;;;3.95;1.30;;;7.20;99.90;;;;;;5052462;28;20041;-86
2022/04/09 13:21:44;;;;;;;4.97;1.52;;;7.10;99.90;;;;;;5052543;28;20036;-87
2022/04/09 13:24:10;;;;;;;5.22;1.50;;;6.90;99.90;;;;;;5053893;28;20025;-87
2022/04/09 13:26:43;;;;;;;2.13;1.65;;;6.70;99.90;;;;;;5053785;28;20036;-88
2022/04/09 13:29:08;;;;;;;5.22;1.60;;;6.40;99.90;;;;;;5053445;28;20033;-87